sensor_id;sensor_type;location;lat;lon;timestamp;P1;durP1;ratioP1;P2;durP2;ratioP2
45059;SDS011;30799;49.060;9.312;2023-02-01T00:01:29;2.55;;;2.13;;
45059;SDS011;30799;49.060;9.312;2023-02-01T00:03:56;2.13;;;1.90;;
45059;SDS011;30799;49.060;9.312;2023-02-01T00:06:23;3.13;;;2.17;;
45059;SDS011;30799;49.060;9.312;2023-02-01T00:08:52;2.35;;;1.88;;
45059;SDS011;30799;49.060;9.312;2023-02-01T00:11:20;3.28;;;1.90;;
45059;SDS011;30799;49.060;9.312;2023-02-01T00:13:47;2.53;;;1.95;;
45059;SDS011;30799;49.060;9.312;2023-02-01T00:16:18;1.98;;;1.77;;
45059;SDS011;30799;49.060;9.312;2023-02-01T00:18:47;6.53;;;2.17;;
45059;SDS011;30799;49.060;9.312;2023-02-01T00:21:17;2.15;;;1.95;;
45059;SDS011;30799;49.060;9.312;2023-02-01T00:23:46;2.10;;;1.80;;
45059;SDS011;30799;49.060;9.312;2023-02-01T00:26:14;2.05;;;1.70;;
45059;SDS011;30799;49.060;9.312;2023-02-01T00:28:43;3.35;;;1.90;;
45059;SDS011;30799;49.060;9.312;2023-02-01T00:31:09;2.05;;;1.65;;
45059;SDS011;30799;49.060;9.312;2023-02-01T00:33:36;2.35;;;1.80;;
45059;SDS011;30799;49.060;9.312;2023-02-01T00:36:04;1.80;;;1.45;;
45059;SDS011;30799;49.060;9.312;2023-02-01T00:38:33;2.35;;;1.83;;
45059;SDS011;30799;49.060;9.312;2023-02-01T00:41:03;2.20;;;2.00;;
45059;SDS011;30799;49.060;9.312;2023-02-01T00:43:33;2.40;;;1.90;;
45059;SDS011;30799;49.060;9.312;2023-02-01T00:46:00;1.88;;;1.70;;
45059;SDS011;30799;49.060;9.312;2023-02-01T00:48:27;3.70;;;1.90;;
45059;SDS011;30799;49.060;9.312;2023-02-01T00:50:54;2.38;;;1.90;;
45059;SDS011;30799;49.060;9.312;2023-02-01T00:53:20;2.20;;;1.90;;
45059;SDS011;30799;49.060;9.312;2023-02-01T00:55:47;2.25;;;1.77;;
45059;SDS011;30799;49.060;9.312;2023-02-01T00:58:14;1.85;;;1.58;;
45059;SDS011;30799;49.060;9.312;2023-02-01T01:00:41;1.88;;;1.67;;
45059;SDS011;30799;49.060;9.312;2023-02-01T01:03:07;1.63;;;1.52;;
45059;SDS011;30799;49.060;9.312;2023-02-01T01:05:46;1.75;;;1.65;;
45059;SDS011;30799;49.060;9.312;2023-02-01T01:08:14;2.08;;;1.80;;
45059;SDS011;30799;49.060;9.312;2023-02-01T01:10:42;2.38;;;1.70;;
45059;SDS011;30799;49.060;9.312;2023-02-01T01:13:09;1.67;;;1.58;;
45059;SDS011;30799;49.060;9.312;2023-02-01T01:15:37;1.63;;;1.42;;
45059;SDS011;30799;49.060;9.312;2023-02-01T01:18:05;1.80;;;1.70;;
45059;SDS011;30799;49.060;9.312;2023-02-01T01:20:36;2.00;;;1.75;;
45059;SDS011;30799;49.060;9.312;2023-02-01T01:23:04;1.75;;;1.50;;
45059;SDS011;30799;49.060;9.312;2023-02-01T01:25:32;1.85;;;1.60;;
45059;SDS011;30799;49.060;9.312;2023-02-01T01:27:58;1.55;;;1.42;;
45059;SDS011;30799;49.060;9.312;2023-02-01T01:30:25;2.33;;;1.48;;
45059;SDS011;30799;49.060;9.312;2023-02-01T01:32:52;1.63;;;1.52;;
45059;SDS011;30799;49.060;9.312;2023-02-01T01:35:18;3.17;;;1.60;;
45059;SDS011;30799;49.060;9.312;2023-02-01T01:37:45;1.67;;;1.58;;
45059;SDS011;30799;49.060;9.312;2023-02-01T01:40:12;1.85;;;1.48;;
45059;SDS011;30799;49.060;9.312;2023-02-01T01:42:39;1.92;;;1.55;;
45059;SDS011;30799;49.060;9.312;2023-02-01T01:45:16;2.13;;;1.58;;
45059;SDS011;30799;49.060;9.312;2023-02-01T01:47:48;1.40;;;1.30;;
45059;SDS011;30799;49.060;9.312;2023-02-01T01:50:19;1.40;;;1.30;;
45059;SDS011;30799;49.060;9.312;2023-02-01T01:53:09;1.40;;;1.25;;
45059;SDS011;30799;49.060;9.312;2023-02-01T01:55:40;1.95;;;1.60;;
45059;SDS011;30799;49.060;9.312;2023-02-01T01:58:14;1.67;;;1.58;;
45059;SDS011;30799;49.060;9.312;2023-02-01T02:00:45;2.08;;;1.50;;
45059;SDS011;30799;49.060;9.312;2023-02-01T02:03:24;1.40;;;1.30;;
45059;SDS011;30799;49.060;9.312;2023-02-01T02:05:55;1.38;;;1.27;;
45059;SDS011;30799;49.060;9.312;2023-02-01T02:08:25;1.35;;;1.25;;
45059;SDS011;30799;49.060;9.312;2023-02-01T02:10:53;1.75;;;1.50;;
45059;SDS011;30799;49.060;9.312;2023-02-01T02:16:07;1.40;;;1.30;;
45059;SDS011;30799;49.060;9.312;2023-02-01T02:18:44;1.50;;;1.35;;
45059;SDS011;30799;49.060;9.312;2023-02-01T02:26:38;1.48;;;1.38;;
45059;SDS011;30799;49.060;9.312;2023-02-01T02:29:35;1.30;;;1.20;;
45059;SDS011;30799;49.060;9.312;2023-02-01T02:32:36;2.55;;;1.30;;
45059;SDS011;30799;49.060;9.312;2023-02-01T02:35:30;2.63;;;1.40;;
45059;SDS011;30799;49.060;9.312;2023-02-01T02:40:58;1.73;;;1.30;;
45059;SDS011;30799;49.060;9.312;2023-02-01T02:43:32;1.52;;;1.40;;
45059;SDS011;30799;49.060;9.312;2023-02-01T02:46:38;1.30;;;1.20;;
45059;SDS011;30799;49.060;9.312;2023-02-01T02:52:54;1.45;;;1.02;;
45059;SDS011;30799;49.060;9.312;2023-02-01T02:55:49;1.23;;;1.13;;
45059;SDS011;30799;49.060;9.312;2023-02-01T02:58:17;1.23;;;1.10;;
45059;SDS011;30799;49.060;9.312;2023-02-01T03:01:04;1.33;;;1.23;;
45059;SDS011;30799;49.060;9.312;2023-02-01T03:03:49;1.20;;;1.10;;
45059;SDS011;30799;49.060;9.312;2023-02-01T03:06:34;1.20;;;1.10;;
45059;SDS011;30799;49.060;9.312;2023-02-01T03:09:03;1.15;;;1.10;;
45059;SDS011;30799;49.060;9.312;2023-02-01T03:11:34;1.40;;;1.30;;
45059;SDS011;30799;49.060;9.312;2023-02-01T03:14:20;1.48;;;1.38;;
45059;SDS011;30799;49.060;9.312;2023-02-01T03:16:52;1.05;;;1.02;;
45059;SDS011;30799;49.060;9.312;2023-02-01T03:19:24;1.17;;;1.08;;
45059;SDS011;30799;49.060;9.312;2023-02-01T03:22:08;1.48;;;1.38;;
45059;SDS011;30799;49.060;9.312;2023-02-01T03:24:44;1.48;;;1.13;;
45059;SDS011;30799;49.060;9.312;2023-02-01T03:27:40;2.13;;;1.60;;
45059;SDS011;30799;49.060;9.312;2023-02-01T03:30:20;1.00;;;1.00;;
45059;SDS011;30799;49.060;9.312;2023-02-01T03:32:56;1.17;;;1.10;;
45059;SDS011;30799;49.060;9.312;2023-02-01T03:35:37;1.17;;;1.02;;
45059;SDS011;30799;49.060;9.312;2023-02-01T03:38:14;1.13;;;1.00;;
45059;SDS011;30799;49.060;9.312;2023-02-01T03:41:00;1.55;;;1.30;;
45059;SDS011;30799;49.060;9.312;2023-02-01T03:43:52;1.65;;;1.00;;
45059;SDS011;30799;49.060;9.312;2023-02-01T03:46:33;1.15;;;1.10;;
45059;SDS011;30799;49.060;9.312;2023-02-01T03:49:06;1.20;;;1.00;;
45059;SDS011;30799;49.060;9.312;2023-02-01T03:51:35;1.08;;;1.00;;
45059;SDS011;30799;49.060;9.312;2023-02-01T03:54:04;1.20;;;1.10;;
45059;SDS011;30799;49.060;9.312;2023-02-01T03:56:36;1.00;;;1.00;;
45059;SDS011;30799;49.060;9.312;2023-02-01T03:59:06;1.10;;;1.00;;
45059;SDS011;30799;49.060;9.312;2023-02-01T04:01:34;1.00;;;1.00;;
45059;SDS011;30799;49.060;9.312;2023-02-01T04:04:01;1.10;;;1.00;;
45059;SDS011;30799;49.060;9.312;2023-02-01T04:06:27;1.20;;;1.10;;
45059;SDS011;30799;49.060;9.312;2023-02-01T04:08:54;1.23;;;1.00;;
45059;SDS011;30799;49.060;9.312;2023-02-01T04:11:21;1.45;;;1.35;;
45059;SDS011;30799;49.060;9.312;2023-02-01T04:13:47;1.10;;;1.00;;
45059;SDS011;30799;49.060;9.312;2023-02-01T04:16:14;1.13;;;0.88;;
45059;SDS011;30799;49.060;9.312;2023-02-01T04:18:41;1.05;;;1.02;;
45059;SDS011;30799;49.060;9.312;2023-02-01T04:21:07;0.93;;;0.93;;
45059;SDS011;30799;49.060;9.312;2023-02-01T04:23:34;1.42;;;1.00;;
45059;SDS011;30799;49.060;9.312;2023-02-01T04:26:03;1.75;;;1.00;;
45059;SDS011;30799;49.060;9.312;2023-02-01T04:28:30;1.10;;;1.00;;
45059;SDS011;30799;49.060;9.312;2023-02-01T04:30:57;1.02;;;0.93;;
45059;SDS011;30799;49.060;9.312;2023-02-01T04:33:25;0.90;;;0.90;;
45059;SDS011;30799;49.060;9.312;2023-02-01T04:35:51;0.85;;;0.85;;
45059;SDS011;30799;49.060;9.312;2023-02-01T04:38:18;1.15;;;0.90;;
45059;SDS011;30799;49.060;9.312;2023-02-01T04:40:46;0.95;;;0.95;;
45059;SDS011;30799;49.060;9.312;2023-02-01T04:43:13;1.00;;;1.00;;
45059;SDS011;30799;49.060;9.312;2023-02-01T04:45:40;1.00;;;0.90;;
45059;SDS011;30799;49.060;9.312;2023-02-01T04:48:07;1.00;;;0.90;;
45059;SDS011;30799;49.060;9.312;2023-02-01T04:50:34;0.88;;;0.88;;
45059;SDS011;30799;49.060;9.312;2023-02-01T04:53:01;0.98;;;0.98;;
45059;SDS011;30799;49.060;9.312;2023-02-01T04:55:28;0.80;;;0.80;;
45059;SDS011;30799;49.060;9.312;2023-02-01T04:57:54;1.10;;;1.10;;
45059;SDS011;30799;49.060;9.312;2023-02-01T05:00:22;0.85;;;0.80;;
45059;SDS011;30799;49.060;9.312;2023-02-01T05:02:49;1.10;;;1.00;;
45059;SDS011;30799;49.060;9.312;2023-02-01T05:05:16;1.05;;;1.00;;
45059;SDS011;30799;49.060;9.312;2023-02-01T05:07:42;0.88;;;0.80;;
45059;SDS011;30799;49.060;9.312;2023-02-01T05:10:09;0.80;;;0.80;;
45059;SDS011;30799;49.060;9.312;2023-02-01T05:12:36;0.80;;;0.80;;
45059;SDS011;30799;49.060;9.312;2023-02-01T05:15:22;0.82;;;0.82;;
45059;SDS011;30799;49.060;9.312;2023-02-01T05:17:49;1.13;;;1.02;;
45059;SDS011;30799;49.060;9.312;2023-02-01T05:20:15;1.05;;;1.00;;
45059;SDS011;30799;49.060;9.312;2023-02-01T05:22:42;0.93;;;0.90;;
45059;SDS011;30799;49.060;9.312;2023-02-01T05:25:09;0.95;;;0.90;;
45059;SDS011;30799;49.060;9.312;2023-02-01T05:27:35;0.60;;;0.60;;
45059;SDS011;30799;49.060;9.312;2023-02-01T05:30:03;1.40;;;1.00;;
45059;SDS011;30799;49.060;9.312;2023-02-01T05:32:30;0.65;;;0.65;;
45059;SDS011;30799;49.060;9.312;2023-02-01T05:34:57;1.02;;;0.93;;
45059;SDS011;30799;49.060;9.312;2023-02-01T05:37:24;0.80;;;0.80;;
45059;SDS011;30799;49.060;9.312;2023-02-01T05:39:50;0.75;;;0.75;;
45059;SDS011;30799;49.060;9.312;2023-02-01T05:42:17;0.95;;;0.90;;
45059;SDS011;30799;49.060;9.312;2023-02-01T05:44:44;0.70;;;0.70;;
45059;SDS011;30799;49.060;9.312;2023-02-01T05:47:11;0.75;;;0.75;;
45059;SDS011;30799;49.060;9.312;2023-02-01T05:49:38;0.85;;;0.85;;
45059;SDS011;30799;49.060;9.312;2023-02-01T05:52:05;0.90;;;0.90;;
45059;SDS011;30799;49.060;9.312;2023-02-01T05:54:31;0.90;;;0.80;;
45059;SDS011;30799;49.060;9.312;2023-02-01T05:56:58;1.25;;;0.95;;
45059;SDS011;30799;49.060;9.312;2023-02-01T05:59:25;0.80;;;0.80;;
45059;SDS011;30799;49.060;9.312;2023-02-01T06:01:51;1.25;;;1.15;;
45059;SDS011;30799;49.060;9.312;2023-02-01T06:04:18;1.88;;;0.93;;
45059;SDS011;30799;49.060;9.312;2023-02-01T06:06:45;3.22;;;1.10;;
45059;SDS011;30799;49.060;9.312;2023-02-01T06:09:11;3.60;;;1.38;;
45059;SDS011;30799;49.060;9.312;2023-02-01T06:11:38;5.20;;;1.50;;
45059;SDS011;30799;49.060;9.312;2023-02-01T06:14:06;2.38;;;1.38;;
45059;SDS011;30799;49.060;9.312;2023-02-01T06:16:34;5.88;;;1.42;;
45059;SDS011;30799;49.060;9.312;2023-02-01T06:19:00;1.42;;;0.98;;
45059;SDS011;30799;49.060;9.312;2023-02-01T06:21:27;1.67;;;1.10;;
45059;SDS011;30799;49.060;9.312;2023-02-01T06:23:53;2.60;;;1.00;;
45059;SDS011;30799;49.060;9.312;2023-02-01T06:26:20;2.42;;;1.10;;
45059;SDS011;30799;49.060;9.312;2023-02-01T06:28:48;3.60;;;1.20;;
45059;SDS011;30799;49.060;9.312;2023-02-01T06:31:15;5.22;;;1.42;;
45059;SDS011;30799;49.060;9.312;2023-02-01T06:33:42;4.82;;;1.10;;
45059;SDS011;30799;49.060;9.312;2023-02-01T06:36:10;3.63;;;1.42;;
45059;SDS011;30799;49.060;9.312;2023-02-01T06:38:38;12.80;;;1.50;;
45059;SDS011;30799;49.060;9.312;2023-02-01T06:41:05;7.85;;;1.27;;
45059;SDS011;30799;49.060;9.312;2023-02-01T06:43:31;4.18;;;1.00;;
45059;SDS011;30799;49.060;9.312;2023-02-01T06:45:59;4.57;;;1.27;;
45059;SDS011;30799;49.060;9.312;2023-02-01T06:48:27;4.65;;;1.38;;
45059;SDS011;30799;49.060;9.312;2023-02-01T06:50:54;3.38;;;1.10;;
45059;SDS011;30799;49.060;9.312;2023-02-01T06:53:21;3.55;;;1.15;;
45059;SDS011;30799;49.060;9.312;2023-02-01T06:55:58;2.25;;;1.08;;
45059;SDS011;30799;49.060;9.312;2023-02-01T06:58:29;3.42;;;1.63;;
45059;SDS011;30799;49.060;9.312;2023-02-01T07:00:57;4.15;;;1.20;;
45059;SDS011;30799;49.060;9.312;2023-02-01T07:03:24;1.75;;;0.98;;
45059;SDS011;30799;49.060;9.312;2023-02-01T07:05:54;3.58;;;1.02;;
45059;SDS011;30799;49.060;9.312;2023-02-01T07:08:22;5.68;;;1.25;;
45059;SDS011;30799;49.060;9.312;2023-02-01T07:10:49;3.65;;;1.20;;
45059;SDS011;30799;49.060;9.312;2023-02-01T07:13:16;5.13;;;1.55;;
45059;SDS011;30799;49.060;9.312;2023-02-01T07:15:42;2.92;;;1.10;;
45059;SDS011;30799;49.060;9.312;2023-02-01T07:18:09;3.22;;;1.02;;
45059;SDS011;30799;49.060;9.312;2023-02-01T07:20:35;1.25;;;1.15;;
45059;SDS011;30799;49.060;9.312;2023-02-01T07:23:02;2.70;;;1.65;;
45059;SDS011;30799;49.060;9.312;2023-02-01T07:25:29;2.45;;;1.10;;
45059;SDS011;30799;49.060;9.312;2023-02-01T07:27:55;2.70;;;1.10;;
45059;SDS011;30799;49.060;9.312;2023-02-01T07:30:22;2.85;;;0.95;;
45059;SDS011;30799;49.060;9.312;2023-02-01T07:32:49;2.45;;;0.90;;
45059;SDS011;30799;49.060;9.312;2023-02-01T07:35:16;4.32;;;1.13;;
45059;SDS011;30799;49.060;9.312;2023-02-01T07:37:42;2.45;;;1.02;;
45059;SDS011;30799;49.060;9.312;2023-02-01T07:40:09;5.32;;;1.42;;
45059;SDS011;30799;49.060;9.312;2023-02-01T07:42:37;1.58;;;1.23;;
45059;SDS011;30799;49.060;9.312;2023-02-01T07:45:04;2.00;;;1.10;;
45059;SDS011;30799;49.060;9.312;2023-02-01T07:50:12;3.90;;;1.40;;
45059;SDS011;30799;49.060;9.312;2023-02-01T07:52:39;2.13;;;1.02;;
45059;SDS011;30799;49.060;9.312;2023-02-01T07:55:06;2.80;;;1.08;;
45059;SDS011;30799;49.060;9.312;2023-02-01T07:57:34;2.33;;;1.20;;
45059;SDS011;30799;49.060;9.312;2023-02-01T08:00:00;3.83;;;1.23;;
45059;SDS011;30799;49.060;9.312;2023-02-01T08:02:46;2.28;;;1.00;;
45059;SDS011;30799;49.060;9.312;2023-02-01T08:05:12;1.75;;;1.33;;
45059;SDS011;30799;49.060;9.312;2023-02-01T08:07:39;2.38;;;1.02;;
45059;SDS011;30799;49.060;9.312;2023-02-01T08:10:06;2.45;;;0.80;;
45059;SDS011;30799;49.060;9.312;2023-02-01T08:12:36;2.45;;;1.30;;
45059;SDS011;30799;49.060;9.312;2023-02-01T08:15:03;1.05;;;0.77;;
45059;SDS011;30799;49.060;9.312;2023-02-01T08:17:30;2.75;;;1.30;;
45059;SDS011;30799;49.060;9.312;2023-02-01T08:19:57;2.17;;;1.08;;
45059;SDS011;30799;49.060;9.312;2023-02-01T08:22:24;2.20;;;1.15;;
45059;SDS011;30799;49.060;9.312;2023-02-01T08:24:50;1.63;;;1.00;;
45059;SDS011;30799;49.060;9.312;2023-02-01T08:27:17;2.08;;;1.00;;
45059;SDS011;30799;49.060;9.312;2023-02-01T08:29:44;2.15;;;1.17;;
45059;SDS011;30799;49.060;9.312;2023-02-01T08:32:11;0.80;;;0.80;;
45059;SDS011;30799;49.060;9.312;2023-02-01T08:34:37;2.08;;;1.20;;
45059;SDS011;30799;49.060;9.312;2023-02-01T08:37:04;1.98;;;1.25;;
45059;SDS011;30799;49.060;9.312;2023-02-01T08:39:31;1.88;;;0.98;;
45059;SDS011;30799;49.060;9.312;2023-02-01T08:41:57;1.80;;;0.88;;
45059;SDS011;30799;49.060;9.312;2023-02-01T08:44:42;2.03;;;1.08;;
45059;SDS011;30799;49.060;9.312;2023-02-01T08:47:09;1.75;;;1.00;;
45059;SDS011;30799;49.060;9.312;2023-02-01T08:49:36;3.05;;;0.90;;
45059;SDS011;30799;49.060;9.312;2023-02-01T08:52:03;2.72;;;1.20;;
45059;SDS011;30799;49.060;9.312;2023-02-01T08:54:40;1.52;;;1.10;;
45059;SDS011;30799;49.060;9.312;2023-02-01T08:57:08;2.63;;;0.98;;
45059;SDS011;30799;49.060;9.312;2023-02-01T08:59:35;1.13;;;1.00;;
45059;SDS011;30799;49.060;9.312;2023-02-01T09:02:02;1.60;;;1.02;;
45059;SDS011;30799;49.060;9.312;2023-02-01T09:04:29;1.33;;;0.90;;
45059;SDS011;30799;49.060;9.312;2023-02-01T09:06:55;1.42;;;0.98;;
45059;SDS011;30799;49.060;9.312;2023-02-01T09:09:22;1.70;;;1.10;;
45059;SDS011;30799;49.060;9.312;2023-02-01T09:11:49;1.73;;;1.10;;
45059;SDS011;30799;49.060;9.312;2023-02-01T09:14:16;1.73;;;1.10;;
45059;SDS011;30799;49.060;9.312;2023-02-01T09:16:43;1.73;;;1.00;;
45059;SDS011;30799;49.060;9.312;2023-02-01T09:21:51;1.95;;;1.23;;
45059;SDS011;30799;49.060;9.312;2023-02-01T09:24:18;1.73;;;0.90;;
45059;SDS011;30799;49.060;9.312;2023-02-01T09:26:45;2.15;;;1.05;;
45059;SDS011;30799;49.060;9.312;2023-02-01T09:29:11;2.25;;;1.00;;
45059;SDS011;30799;49.060;9.312;2023-02-01T09:31:39;1.23;;;0.93;;
45059;SDS011;30799;49.060;9.312;2023-02-01T09:34:22;2.13;;;1.05;;
45059;SDS011;30799;49.060;9.312;2023-02-01T09:36:49;1.65;;;0.90;;
45059;SDS011;30799;49.060;9.312;2023-02-01T09:39:16;1.70;;;1.08;;
45059;SDS011;30799;49.060;9.312;2023-02-01T09:47:13;1.38;;;0.98;;
45059;SDS011;30799;49.060;9.312;2023-02-01T09:52:32;2.17;;;1.17;;
45059;SDS011;30799;49.060;9.312;2023-02-01T09:55:07;3.38;;;1.17;;
45059;SDS011;30799;49.060;9.312;2023-02-01T09:57:50;2.25;;;1.20;;
45059;SDS011;30799;49.060;9.312;2023-02-01T10:00:29;1.50;;;1.00;;
45059;SDS011;30799;49.060;9.312;2023-02-01T10:03:00;2.45;;;1.33;;
45059;SDS011;30799;49.060;9.312;2023-02-01T10:10:53;2.08;;;1.30;;
45059;SDS011;30799;49.060;9.312;2023-02-01T10:13:30;2.17;;;1.20;;
45059;SDS011;30799;49.060;9.312;2023-02-01T10:18:49;3.33;;;1.50;;
45059;SDS011;30799;49.060;9.312;2023-02-01T10:27:14;2.20;;;1.27;;
45059;SDS011;30799;49.060;9.312;2023-02-01T10:29:47;2.83;;;1.40;;
45059;SDS011;30799;49.060;9.312;2023-02-01T10:32:33;3.67;;;1.48;;
45059;SDS011;30799;49.060;9.312;2023-02-01T10:35:02;2.45;;;1.40;;
45059;SDS011;30799;49.060;9.312;2023-02-01T10:37:40;2.65;;;1.30;;
45059;SDS011;30799;49.060;9.312;2023-02-01T10:40:18;2.15;;;1.15;;
45059;SDS011;30799;49.060;9.312;2023-02-01T10:42:54;2.25;;;1.30;;
45059;SDS011;30799;49.060;9.312;2023-02-01T10:45:27;3.65;;;1.40;;
45059;SDS011;30799;49.060;9.312;2023-02-01T10:47:55;3.13;;;1.40;;
45059;SDS011;30799;49.060;9.312;2023-02-01T10:56:06;4.35;;;1.58;;
45059;SDS011;30799;49.060;9.312;2023-02-01T10:58:35;2.90;;;1.27;;
45059;SDS011;30799;49.060;9.312;2023-02-01T11:01:09;3.88;;;1.30;;
45059;SDS011;30799;49.060;9.312;2023-02-01T11:03:55;4.68;;;1.80;;
45059;SDS011;30799;49.060;9.312;2023-02-01T11:06:30;2.65;;;1.38;;
45059;SDS011;30799;49.060;9.312;2023-02-01T11:09:01;3.10;;;1.38;;
45059;SDS011;30799;49.060;9.312;2023-02-01T11:11:52;2.25;;;1.30;;
45059;SDS011;30799;49.060;9.312;2023-02-01T11:14:44;2.38;;;1.58;;
45059;SDS011;30799;49.060;9.312;2023-02-01T11:19:43;3.28;;;1.42;;
45059;SDS011;30799;49.060;9.312;2023-02-01T11:22:21;3.45;;;1.70;;
45059;SDS011;30799;49.060;9.312;2023-02-01T11:24:52;3.58;;;1.52;;
45059;SDS011;30799;49.060;9.312;2023-02-01T11:27:20;4.75;;;1.70;;
45059;SDS011;30799;49.060;9.312;2023-02-01T11:29:55;5.63;;;1.60;;
45059;SDS011;30799;49.060;9.312;2023-02-01T11:32:25;2.58;;;1.50;;
45059;SDS011;30799;49.060;9.312;2023-02-01T11:35:12;3.53;;;1.60;;
45059;SDS011;30799;49.060;9.312;2023-02-01T11:37:43;2.90;;;1.70;;
45059;SDS011;30799;49.060;9.312;2023-02-01T11:42:52;4.50;;;1.70;;
45059;SDS011;30799;49.060;9.312;2023-02-01T11:45:28;2.75;;;1.63;;
45059;SDS011;30799;49.060;9.312;2023-02-01T11:47:57;3.83;;;1.35;;
45059;SDS011;30799;49.060;9.312;2023-02-01T11:50:29;2.95;;;1.55;;
45059;SDS011;30799;49.060;9.312;2023-02-01T12:01:32;2.85;;;1.63;;
45059;SDS011;30799;49.060;9.312;2023-02-01T12:04:30;4.68;;;1.95;;
45059;SDS011;30799;49.060;9.312;2023-02-01T12:21:36;2.63;;;1.33;;
45059;SDS011;30799;49.060;9.312;2023-02-01T12:27:30;4.13;;;1.50;;
45059;SDS011;30799;49.060;9.312;2023-02-01T12:30:43;2.58;;;1.35;;
45059;SDS011;30799;49.060;9.312;2023-02-01T12:33:27;4.05;;;1.70;;
45059;SDS011;30799;49.060;9.312;2023-02-01T12:47:03;3.40;;;1.52;;
45059;SDS011;30799;49.060;9.312;2023-02-01T12:49:38;3.60;;;1.50;;
45059;SDS011;30799;49.060;9.312;2023-02-01T12:52:47;5.10;;;1.97;;
45059;SDS011;30799;49.060;9.312;2023-02-01T12:55:17;5.00;;;1.70;;
45059;SDS011;30799;49.060;9.312;2023-02-01T12:57:48;3.15;;;1.50;;
45059;SDS011;30799;49.060;9.312;2023-02-01T13:03:21;2.05;;;1.45;;
45059;SDS011;30799;49.060;9.312;2023-02-01T13:06:03;3.30;;;1.70;;
45059;SDS011;30799;49.060;9.312;2023-02-01T13:08:45;3.50;;;1.90;;
45059;SDS011;30799;49.060;9.312;2023-02-01T13:16:52;4.18;;;1.92;;
45059;SDS011;30799;49.060;9.312;2023-02-01T13:22:30;3.67;;;1.83;;
45059;SDS011;30799;49.060;9.312;2023-02-01T13:25:04;3.10;;;1.60;;
45059;SDS011;30799;49.060;9.312;2023-02-01T13:27:59;3.88;;;1.67;;
45059;SDS011;30799;49.060;9.312;2023-02-01T13:30:36;2.58;;;1.58;;
45059;SDS011;30799;49.060;9.312;2023-02-01T13:36:20;3.42;;;2.00;;
45059;SDS011;30799;49.060;9.312;2023-02-01T13:41:55;3.42;;;1.70;;
45059;SDS011;30799;49.060;9.312;2023-02-01T13:44:33;4.28;;;2.17;;
45059;SDS011;30799;49.060;9.312;2023-02-01T13:47:11;4.18;;;2.00;;
45059;SDS011;30799;49.060;9.312;2023-02-01T13:52:27;3.70;;;1.90;;
45059;SDS011;30799;49.060;9.312;2023-02-01T13:57:41;3.95;;;2.10;;
45059;SDS011;30799;49.060;9.312;2023-02-01T14:00:23;3.03;;;2.08;;
45059;SDS011;30799;49.060;9.312;2023-02-01T14:26:48;4.00;;;1.90;;
45059;SDS011;30799;49.060;9.312;2023-02-01T14:42:20;3.90;;;1.73;;
45059;SDS011;30799;49.060;9.312;2023-02-01T14:44:55;3.70;;;2.00;;
45059;SDS011;30799;49.060;9.312;2023-02-01T14:47:42;4.13;;;2.03;;
45059;SDS011;30799;49.060;9.312;2023-02-01T15:01:53;3.00;;;1.70;;
45059;SDS011;30799;49.060;9.312;2023-02-01T15:06:31;2.97;;;1.85;;
45059;SDS011;30799;49.060;9.312;2023-02-01T15:09:11;5.05;;;2.00;;
45059;SDS011;30799;49.060;9.312;2023-02-01T15:14:38;5.43;;;2.13;;
45059;SDS011;30799;49.060;9.312;2023-02-01T15:17:23;2.78;;;1.95;;
45059;SDS011;30799;49.060;9.312;2023-02-01T15:22:26;4.20;;;1.80;;
45059;SDS011;30799;49.060;9.312;2023-02-01T15:24:55;4.13;;;1.88;;
45059;SDS011;30799;49.060;9.312;2023-02-01T15:27:23;3.58;;;1.83;;
45059;SDS011;30799;49.060;9.312;2023-02-01T15:32:31;4.93;;;2.00;;
45059;SDS011;30799;49.060;9.312;2023-02-01T15:35:00;2.63;;;1.88;;
45059;SDS011;30799;49.060;9.312;2023-02-01T15:37:27;4.15;;;1.92;;
45059;SDS011;30799;49.060;9.312;2023-02-01T15:40:05;2.70;;;1.67;;
45059;SDS011;30799;49.060;9.312;2023-02-01T15:42:40;3.42;;;1.70;;
45059;SDS011;30799;49.060;9.312;2023-02-01T15:45:22;2.65;;;1.63;;
45059;SDS011;30799;49.060;9.312;2023-02-01T15:47:54;4.30;;;1.65;;
45059;SDS011;30799;49.060;9.312;2023-02-01T15:50:23;3.00;;;1.83;;
45059;SDS011;30799;49.060;9.312;2023-02-01T15:52:52;5.00;;;1.92;;
45059;SDS011;30799;49.060;9.312;2023-02-01T15:55:22;2.55;;;1.50;;
45059;SDS011;30799;49.060;9.312;2023-02-01T15:57:56;4.55;;;2.20;;
45059;SDS011;30799;49.060;9.312;2023-02-01T16:00:23;3.13;;;1.80;;
45059;SDS011;30799;49.060;9.312;2023-02-01T16:03:04;3.00;;;1.75;;
45059;SDS011;30799;49.060;9.312;2023-02-01T16:05:53;3.53;;;1.73;;
45059;SDS011;30799;49.060;9.312;2023-02-01T16:08:25;3.60;;;1.70;;
45059;SDS011;30799;49.060;9.312;2023-02-01T16:10:54;3.47;;;2.10;;
45059;SDS011;30799;49.060;9.312;2023-02-01T16:13:28;2.97;;;1.40;;
45059;SDS011;30799;49.060;9.312;2023-02-01T16:15:54;3.53;;;1.80;;
45059;SDS011;30799;49.060;9.312;2023-02-01T16:18:21;3.25;;;1.70;;
45059;SDS011;30799;49.060;9.312;2023-02-01T16:20:48;3.00;;;1.70;;
45059;SDS011;30799;49.060;9.312;2023-02-01T16:23:14;3.38;;;1.45;;
45059;SDS011;30799;49.060;9.312;2023-02-01T16:25:41;7.68;;;2.65;;
45059;SDS011;30799;49.060;9.312;2023-02-01T16:28:08;8.20;;;3.05;;
45059;SDS011;30799;49.060;9.312;2023-02-01T16:30:35;10.80;;;3.63;;
45059;SDS011;30799;49.060;9.312;2023-02-01T16:33:02;7.20;;;2.67;;
45059;SDS011;30799;49.060;9.312;2023-02-01T16:35:32;5.78;;;2.30;;
45059;SDS011;30799;49.060;9.312;2023-02-01T16:38:03;7.43;;;2.25;;
45059;SDS011;30799;49.060;9.312;2023-02-01T16:40:56;10.00;;;2.45;;
45059;SDS011;30799;49.060;9.312;2023-02-01T16:43:24;6.57;;;2.15;;
45059;SDS011;30799;49.060;9.312;2023-02-01T16:45:52;5.05;;;2.40;;
45059;SDS011;30799;49.060;9.312;2023-02-01T16:48:22;5.93;;;2.30;;
45059;SDS011;30799;49.060;9.312;2023-02-01T16:51:01;6.68;;;2.15;;
45059;SDS011;30799;49.060;9.312;2023-02-01T16:53:32;4.55;;;1.90;;
45059;SDS011;30799;49.060;9.312;2023-02-01T16:56:17;7.15;;;2.60;;
45059;SDS011;30799;49.060;9.312;2023-02-01T16:58:46;5.93;;;2.40;;
45059;SDS011;30799;49.060;9.312;2023-02-01T17:01:14;5.47;;;2.25;;
45059;SDS011;30799;49.060;9.312;2023-02-01T17:03:44;3.90;;;2.22;;
45059;SDS011;30799;49.060;9.312;2023-02-01T17:06:13;7.97;;;2.92;;
45059;SDS011;30799;49.060;9.312;2023-02-01T17:08:47;6.75;;;2.30;;
45059;SDS011;30799;49.060;9.312;2023-02-01T17:11:17;5.70;;;2.40;;
45059;SDS011;30799;49.060;9.312;2023-02-01T17:13:44;4.90;;;2.03;;
45059;SDS011;30799;49.060;9.312;2023-02-01T17:18:46;9.90;;;2.35;;
45059;SDS011;30799;49.060;9.312;2023-02-01T17:21:26;6.35;;;2.15;;
45059;SDS011;30799;49.060;9.312;2023-02-01T17:23:55;8.05;;;2.20;;
45059;SDS011;30799;49.060;9.312;2023-02-01T17:26:23;6.03;;;2.28;;
45059;SDS011;30799;49.060;9.312;2023-02-01T17:28:50;7.85;;;2.53;;
45059;SDS011;30799;49.060;9.312;2023-02-01T17:31:17;7.57;;;2.40;;
45059;SDS011;30799;49.060;9.312;2023-02-01T17:33:44;7.75;;;2.47;;
45059;SDS011;30799;49.060;9.312;2023-02-01T17:36:12;9.20;;;1.90;;
45059;SDS011;30799;49.060;9.312;2023-02-01T17:38:40;4.90;;;2.00;;
45059;SDS011;30799;49.060;9.312;2023-02-01T17:41:11;4.35;;;1.88;;
45059;SDS011;30799;49.060;9.312;2023-02-01T17:43:38;5.70;;;2.42;;
45059;SDS011;30799;49.060;9.312;2023-02-01T17:46:12;8.63;;;2.35;;
45059;SDS011;30799;49.060;9.312;2023-02-01T17:48:41;5.20;;;2.28;;
45059;SDS011;30799;49.060;9.312;2023-02-01T17:51:18;6.22;;;2.03;;
45059;SDS011;30799;49.060;9.312;2023-02-01T17:53:52;5.72;;;2.20;;
45059;SDS011;30799;49.060;9.312;2023-02-01T17:56:20;4.70;;;1.90;;
45059;SDS011;30799;49.060;9.312;2023-02-01T17:58:49;4.82;;;2.38;;
45059;SDS011;30799;49.060;9.312;2023-02-01T18:03:47;5.53;;;2.30;;
45059;SDS011;30799;49.060;9.312;2023-02-01T18:06:21;6.13;;;1.92;;
45059;SDS011;30799;49.060;9.312;2023-02-01T18:08:51;5.78;;;2.38;;
45059;SDS011;30799;49.060;9.312;2023-02-01T18:11:20;5.00;;;1.70;;